sensor_id;sensor_type;location;lat;lon;timestamp;temperature;humidity
8475;DHT22;4274;52.012;8.448;2023-11-21T00:00:50;7.20;99.90
8475;DHT22;4274;52.012;8.448;2023-11-21T00:03:15;7.10;99.90
8475;DHT22;4274;52.012;8.448;2023-11-21T00:05:41;7.10;99.90
8475;DHT22;4274;52.012;8.448;2023-11-21T00:08:08;7.10;99.90
8475;DHT22;4274;52.012;8.448;2023-11-21T00:10:34;7.10;99.90
8475;DHT22;4274;52.012;8.448;2023-11-21T00:13:00;7.10;99.90
8475;DHT22;4274;52.012;8.448;2023-11-21T00:15:27;7.20;99.90
8475;DHT22;4274;52.012;8.448;2023-11-21T00:17:52;7.20;99.90
8475;DHT22;4274;52.012;8.448;2023-11-21T00:20:18;7.30;99.90
8475;DHT22;4274;52.012;8.448;2023-11-21T00:22:43;7.20;99.90
8475;DHT22;4274;52.012;8.448;2023-11-21T00:25:09;7.20;99.90
8475;DHT22;4274;52.012;8.448;2023-11-21T00:27:36;7.20;99.90
8475;DHT22;4274;52.012;8.448;2023-11-21T00:30:02;7.20;99.90
8475;DHT22;4274;52.012;8.448;2023-11-21T00:32:29;7.20;99.90
8475;DHT22;4274;52.012;8.448;2023-11-21T00:34:55;7.30;99.90
8475;DHT22;4274;52.012;8.448;2023-11-21T00:37:20;7.30;99.90
8475;DHT22;4274;52.012;8.448;2023-11-21T00:39:46;7.30;99.90
8475;DHT22;4274;52.012;8.448;2023-11-21T00:42:12;7.30;99.90
8475;DHT22;4274;52.012;8.448;2023-11-21T00:44:38;7.40;99.90
8475;DHT22;4274;52.012;8.448;2023-11-21T00:47:04;7.40;99.90
8475;DHT22;4274;52.012;8.448;2023-11-21T00:49:30;7.50;99.90
8475;DHT22;4274;52.012;8.448;2023-11-21T00:51:56;7.50;99.90
8475;DHT22;4274;52.012;8.448;2023-11-21T00:54:23;7.50;99.90
8475;DHT22;4274;52.012;8.448;2023-11-21T00:56:49;7.50;99.90
8475;DHT22;4274;52.012;8.448;2023-11-21T00:59:14;7.50;99.90
8475;DHT22;4274;52.012;8.448;2023-11-21T01:01:40;7.40;99.90
8475;DHT22;4274;52.012;8.448;2023-11-21T01:04:05;7.50;99.90
8475;DHT22;4274;52.012;8.448;2023-11-21T01:06:32;7.50;99.90
8475;DHT22;4274;52.012;8.448;2023-11-21T01:08:58;7.50;99.90
8475;DHT22;4274;52.012;8.448;2023-11-21T01:11:23;7.50;99.90
8475;DHT22;4274;52.012;8.448;2023-11-21T01:13:49;7.50;99.90
8475;DHT22;4274;52.012;8.448;2023-11-21T01:16:14;7.50;99.90
8475;DHT22;4274;52.012;8.448;2023-11-21T01:18:40;7.50;99.90
8475;DHT22;4274;52.012;8.448;2023-11-21T01:21:06;7.50;99.90
8475;DHT22;4274;52.012;8.448;2023-11-21T01:23:33;7.50;99.90
8475;DHT22;4274;52.012;8.448;2023-11-21T01:25:58;7.60;99.90
8475;DHT22;4274;52.012;8.448;2023-11-21T01:28:24;7.60;99.90
8475;DHT22;4274;52.012;8.448;2023-11-21T01:30:49;7.60;99.90
8475;DHT22;4274;52.012;8.448;2023-11-21T01:33:15;7.60;99.90
8475;DHT22;4274;52.012;8.448;2023-11-21T01:35:42;7.60;99.90
8475;DHT22;4274;52.012;8.448;2023-11-21T01:38:07;7.60;99.90
8475;DHT22;4274;52.012;8.448;2023-11-21T01:40:34;7.60;99.90
8475;DHT22;4274;52.012;8.448;2023-11-21T01:43:00;7.60;99.90
8475;DHT22;4274;52.012;8.448;2023-11-21T01:45:25;7.60;99.90
8475;DHT22;4274;52.012;8.448;2023-11-21T01:47:52;7.50;99.90
8475;DHT22;4274;52.012;8.448;2023-11-21T01:50:18;7.60;99.90
8475;DHT22;4274;52.012;8.448;2023-11-21T01:52:45;7.50;99.90
8475;DHT22;4274;52.012;8.448;2023-11-21T01:55:11;7.60;99.90
8475;DHT22;4274;52.012;8.448;2023-11-21T01:57:37;7.60;99.90
8475;DHT22;4274;52.012;8.448;2023-11-21T02:00:04;7.60;99.90
8475;DHT22;4274;52.012;8.448;2023-11-21T02:02:42;7.60;99.90
8475;DHT22;4274;52.012;8.448;2023-11-21T02:05:07;7.60;99.90
8475;DHT22;4274;52.012;8.448;2023-11-21T02:07:34;7.60;99.90
8475;DHT22;4274;52.012;8.448;2023-11-21T02:10:00;7.60;99.90
8475;DHT22;4274;52.012;8.448;2023-11-21T02:12:26;7.60;99.90
8475;DHT22;4274;52.012;8.448;2023-11-21T02:14:52;7.60;99.90
8475;DHT22;4274;52.012;8.448;2023-11-21T02:17:17;7.60;99.90
8475;DHT22;4274;52.012;8.448;2023-11-21T02:19:43;7.60;99.90
8475;DHT22;4274;52.012;8.448;2023-11-21T02:22:10;7.60;99.90
8475;DHT22;4274;52.012;8.448;2023-11-21T02:24:37;7.60;99.90
8475;DHT22;4274;52.012;8.448;2023-11-21T02:27:02;7.60;99.90
8475;DHT22;4274;52.012;8.448;2023-11-21T02:29:28;7.60;99.90
8475;DHT22;4274;52.012;8.448;2023-11-21T02:31:54;7.60;99.90
8475;DHT22;4274;52.012;8.448;2023-11-21T02:34:21;7.60;99.90
8475;DHT22;4274;52.012;8.448;2023-11-21T02:36:47;7.60;99.90
8475;DHT22;4274;52.012;8.448;2023-11-21T02:39:15;7.70;99.90
8475;DHT22;4274;52.012;8.448;2023-11-21T02:41:42;7.70;99.90
8475;DHT22;4274;52.012;8.448;2023-11-21T02:44:08;7.70;99.90
8475;DHT22;4274;52.012;8.448;2023-11-21T02:46:34;7.70;99.90
8475;DHT22;4274;52.012;8.448;2023-11-21T02:49:01;7.70;99.90
8475;DHT22;4274;52.012;8.448;2023-11-21T02:51:27;7.70;99.90
8475;DHT22;4274;52.012;8.448;2023-11-21T02:53:53;7.70;99.90
8475;DHT22;4274;52.012;8.448;2023-11-21T02:56:19;7.70;99.90
8475;DHT22;4274;52.012;8.448;2023-11-21T02:58:45;7.70;99.90
8475;DHT22;4274;52.012;8.448;2023-11-21T03:01:11;7.70;99.90
8475;DHT22;4274;52.012;8.448;2023-11-21T03:03:37;7.70;99.90
8475;DHT22;4274;52.012;8.448;2023-11-21T03:06:06;7.70;99.90
8475;DHT22;4274;52.012;8.448;2023-11-21T03:08:31;7.70;99.90
8475;DHT22;4274;52.012;8.448;2023-11-21T03:10:57;7.70;99.90
8475;DHT22;4274;52.012;8.448;2023-11-21T03:13:23;7.70;99.90
8475;DHT22;4274;52.012;8.448;2023-11-21T03:15:49;7.70;99.90
8475;DHT22;4274;52.012;8.448;2023-11-21T03:18:14;7.70;99.90
8475;DHT22;4274;52.012;8.448;2023-11-21T03:20:40;7.70;99.90
8475;DHT22;4274;52.012;8.448;2023-11-21T03:23:05;7.70;99.90
8475;DHT22;4274;52.012;8.448;2023-11-21T03:25:31;7.70;99.90
8475;DHT22;4274;52.012;8.448;2023-11-21T03:27:56;7.70;99.90
8475;DHT22;4274;52.012;8.448;2023-11-21T03:30:22;7.80;99.90
8475;DHT22;4274;52.012;8.448;2023-11-21T03:32:47;7.80;99.90
8475;DHT22;4274;52.012;8.448;2023-11-21T03:35:13;7.80;99.90
8475;DHT22;4274;52.012;8.448;2023-11-21T03:37:39;7.80;99.90
8475;DHT22;4274;52.012;8.448;2023-11-21T03:40:07;7.80;99.90
8475;DHT22;4274;52.012;8.448;2023-11-21T03:42:34;7.80;99.90
8475;DHT22;4274;52.012;8.448;2023-11-21T03:45:00;7.80;99.90
8475;DHT22;4274;52.012;8.448;2023-11-21T03:47:27;7.80;99.90
8475;DHT22;4274;52.012;8.448;2023-11-21T03:49:53;7.80;99.90
8475;DHT22;4274;52.012;8.448;2023-11-21T03:52:19;7.80;99.90
8475;DHT22;4274;52.012;8.448;2023-11-21T03:54:44;7.80;99.90
8475;DHT22;4274;52.012;8.448;2023-11-21T03:57:11;7.80;99.90
8475;DHT22;4274;52.012;8.448;2023-11-21T03:59:40;7.80;99.90
8475;DHT22;4274;52.012;8.448;2023-11-21T04:02:05;7.80;99.90
8475;DHT22;4274;52.012;8.448;2023-11-21T04:04:31;7.80;99.90
8475;DHT22;4274;52.012;8.448;2023-11-21T04:06:56;7.80;99.90
8475;DHT22;4274;52.012;8.448;2023-11-21T04:09:22;7.80;99.90
8475;DHT22;4274;52.012;8.448;2023-11-21T04:11:53;7.80;99.90
8475;DHT22;4274;52.012;8.448;2023-11-21T04:14:19;7.80;99.90
8475;DHT22;4274;52.012;8.448;2023-11-21T04:16:45;7.90;99.90
8475;DHT22;4274;52.012;8.448;2023-11-21T04:19:10;7.80;99.90
8475;DHT22;4274;52.012;8.448;2023-11-21T04:21:39;7.80;99.90
8475;DHT22;4274;52.012;8.448;2023-11-21T04:24:05;7.80;99.90
8475;DHT22;4274;52.012;8.448;2023-11-21T04:26:31;7.80;99.90
8475;DHT22;4274;52.012;8.448;2023-11-21T04:28:57;7.80;99.90
8475;DHT22;4274;52.012;8.448;2023-11-21T04:31:22;7.80;99.90
8475;DHT22;4274;52.012;8.448;2023-11-21T04:33:48;7.80;99.90
8475;DHT22;4274;52.012;8.448;2023-11-21T04:36:14;7.70;99.90
8475;DHT22;4274;52.012;8.448;2023-11-21T04:38:39;7.80;99.90
8475;DHT22;4274;52.012;8.448;2023-11-21T04:41:06;7.80;99.90
8475;DHT22;4274;52.012;8.448;2023-11-21T04:43:32;7.70;99.90
8475;DHT22;4274;52.012;8.448;2023-11-21T04:45:57;7.70;99.90
8475;DHT22;4274;52.012;8.448;2023-11-21T04:48:23;7.70;99.90
8475;DHT22;4274;52.012;8.448;2023-11-21T04:50:48;7.70;99.90
8475;DHT22;4274;52.012;8.448;2023-11-21T04:53:14;7.70;99.90
8475;DHT22;4274;52.012;8.448;2023-11-21T04:55:40;7.70;99.90
8475;DHT22;4274;52.012;8.448;2023-11-21T04:58:06;7.70;99.90
8475;DHT22;4274;52.012;8.448;2023-11-21T05:00:33;7.70;99.90
8475;DHT22;4274;52.012;8.448;2023-11-21T05:02:59;7.70;99.90
8475;DHT22;4274;52.012;8.448;2023-11-21T05:05:26;7.70;99.90
8475;DHT22;4274;52.012;8.448;2023-11-21T05:07:52;7.70;99.90
8475;DHT22;4274;52.012;8.448;2023-11-21T05:10:19;7.70;99.90
8475;DHT22;4274;52.012;8.448;2023-11-21T05:12:44;7.70;99.90
8475;DHT22;4274;52.012;8.448;2023-11-21T05:15:13;7.70;99.90
8475;DHT22;4274;52.012;8.448;2023-11-21T05:17:40;7.70;99.90
8475;DHT22;4274;52.012;8.448;2023-11-21T05:20:13;7.70;99.90
8475;DHT22;4274;52.012;8.448;2023-11-21T05:22:40;7.70;99.90
8475;DHT22;4274;52.012;8.448;2023-11-21T05:25:06;7.70;99.90
8475;DHT22;4274;52.012;8.448;2023-11-21T05:27:33;7.60;99.90
8475;DHT22;4274;52.012;8.448;2023-11-21T05:30:01;7.70;99.90
8475;DHT22;4274;52.012;8.448;2023-11-21T05:32:26;7.70;99.90
8475;DHT22;4274;52.012;8.448;2023-11-21T05:34:53;7.60;99.90
8475;DHT22;4274;52.012;8.448;2023-11-21T05:37:18;7.60;99.90
8475;DHT22;4274;52.012;8.448;2023-11-21T05:39:44;7.60;99.90
8475;DHT22;4274;52.012;8.448;2023-11-21T05:42:09;7.60;99.90
8475;DHT22;4274;52.012;8.448;2023-11-21T05:44:41;7.60;99.90
8475;DHT22;4274;52.012;8.448;2023-11-21T05:47:06;7.60;99.90
8475;DHT22;4274;52.012;8.448;2023-11-21T05:49:32;7.60;99.90
8475;DHT22;4274;52.012;8.448;2023-11-21T05:51:59;7.60;99.90
8475;DHT22;4274;52.012;8.448;2023-11-21T05:54:25;7.60;99.90
8475;DHT22;4274;52.012;8.448;2023-11-21T05:56:51;7.60;99.90
8475;DHT22;4274;52.012;8.448;2023-11-21T05:59:17;7.60;99.90
8475;DHT22;4274;52.012;8.448;2023-11-21T06:01:43;7.60;99.90
8475;DHT22;4274;52.012;8.448;2023-11-21T06:04:08;7.60;99.90
8475;DHT22;4274;52.012;8.448;2023-11-21T06:06:35;7.60;99.90
8475;DHT22;4274;52.012;8.448;2023-11-21T06:09:00;7.60;99.90
8475;DHT22;4274;52.012;8.448;2023-11-21T06:11:26;7.60;99.90
8475;DHT22;4274;52.012;8.448;2023-11-21T06:13:52;7.60;99.90
8475;DHT22;4274;52.012;8.448;2023-11-21T06:16:18;7.60;99.90
8475;DHT22;4274;52.012;8.448;2023-11-21T06:18:45;7.70;99.90
8475;DHT22;4274;52.012;8.448;2023-11-21T06:21:12;7.70;99.90
8475;DHT22;4274;52.012;8.448;2023-11-21T06:23:37;7.70;99.90
8475;DHT22;4274;52.012;8.448;2023-11-21T06:26:03;7.70;99.90
8475;DHT22;4274;52.012;8.448;2023-11-21T06:28:30;7.70;99.90
8475;DHT22;4274;52.012;8.448;2023-11-21T06:30:56;7.70;99.90
8475;DHT22;4274;52.012;8.448;2023-11-21T06:33:22;7.70;99.90
8475;DHT22;4274;52.012;8.448;2023-11-21T06:35:48;7.70;99.90
8475;DHT22;4274;52.012;8.448;2023-11-21T06:38:13;7.70;99.90
8475;DHT22;4274;52.012;8.448;2023-11-21T06:40:39;7.70;99.90
8475;DHT22;4274;52.012;8.448;2023-11-21T06:43:06;7.70;99.90
8475;DHT22;4274;52.012;8.448;2023-11-21T06:45:33;7.70;99.90
8475;DHT22;4274;52.012;8.448;2023-11-21T06:47:59;7.70;99.90
8475;DHT22;4274;52.012;8.448;2023-11-21T06:50:25;7.70;99.90
8475;DHT22;4274;52.012;8.448;2023-11-21T06:52:51;7.70;99.90
8475;DHT22;4274;52.012;8.448;2023-11-21T06:55:16;7.70;99.90
8475;DHT22;4274;52.012;8.448;2023-11-21T06:57:42;7.70;99.90
8475;DHT22;4274;52.012;8.448;2023-11-21T07:00:08;7.70;99.90
8475;DHT22;4274;52.012;8.448;2023-11-21T07:02:34;7.70;99.90
8475;DHT22;4274;52.012;8.448;2023-11-21T07:05:00;7.70;99.90
8475;DHT22;4274;52.012;8.448;2023-11-21T07:07:26;7.70;99.90
8475;DHT22;4274;52.012;8.448;2023-11-21T07:09:52;7.70;99.90
8475;DHT22;4274;52.012;8.448;2023-11-21T07:12:18;7.70;99.90
8475;DHT22;4274;52.012;8.448;2023-11-21T07:14:43;7.70;99.90
8475;DHT22;4274;52.012;8.448;2023-11-21T07:17:11;7.70;99.90
8475;DHT22;4274;52.012;8.448;2023-11-21T07:19:37;7.70;99.90
8475;DHT22;4274;52.012;8.448;2023-11-21T07:22:03;7.70;99.90
8475;DHT22;4274;52.012;8.448;2023-11-21T07:24:29;7.80;99.90
8475;DHT22;4274;52.012;8.448;2023-11-21T07:26:57;7.80;99.90
8475;DHT22;4274;52.012;8.448;2023-11-21T07:29:23;7.80;99.90
8475;DHT22;4274;52.012;8.448;2023-11-21T07:31:51;7.80;99.90
8475;DHT22;4274;52.012;8.448;2023-11-21T07:34:16;7.80;99.90
8475;DHT22;4274;52.012;8.448;2023-11-21T07:36:42;7.80;99.90
8475;DHT22;4274;52.012;8.448;2023-11-21T07:39:08;7.80;99.90
8475;DHT22;4274;52.012;8.448;2023-11-21T07:41:33;7.80;99.90
8475;DHT22;4274;52.012;8.448;2023-11-21T07:43:59;7.80;99.90
8475;DHT22;4274;52.012;8.448;2023-11-21T07:46:26;7.80;99.90
8475;DHT22;4274;52.012;8.448;2023-11-21T07:48:52;7.80;99.90
8475;DHT22;4274;52.012;8.448;2023-11-21T07:51:17;7.80;99.90
8475;DHT22;4274;52.012;8.448;2023-11-21T07:53:43;7.80;99.90
8475;DHT22;4274;52.012;8.448;2023-11-21T07:56:09;7.80;99.90
8475;DHT22;4274;52.012;8.448;2023-11-21T07:58:35;7.80;99.90
8475;DHT22;4274;52.012;8.448;2023-11-21T08:01:02;7.80;99.90
8475;DHT22;4274;52.012;8.448;2023-11-21T08:03:27;7.80;99.90
8475;DHT22;4274;52.012;8.448;2023-11-21T08:05:55;7.80;99.90
8475;DHT22;4274;52.012;8.448;2023-11-21T08:08:21;7.80;99.90
8475;DHT22;4274;52.012;8.448;2023-11-21T08:10:47;7.80;99.90
8475;DHT22;4274;52.012;8.448;2023-11-21T08:13:13;7.80;99.90
8475;DHT22;4274;52.012;8.448;2023-11-21T08:15:41;7.90;99.90
8475;DHT22;4274;52.012;8.448;2023-11-21T08:18:10;7.90;99.90
8475;DHT22;4274;52.012;8.448;2023-11-21T08:20:36;7.80;99.90
8475;DHT22;4274;52.012;8.448;2023-11-21T08:23:03;7.80;99.90
8475;DHT22;4274;52.012;8.448;2023-11-21T08:25:31;7.90;99.90
8475;DHT22;4274;52.012;8.448;2023-11-21T08:27:57;7.90;99.90
8475;DHT22;4274;52.012;8.448;2023-11-21T08:30:22;7.90;99.90
8475;DHT22;4274;52.012;8.448;2023-11-21T08:32:49;8.00;99.90
8475;DHT22;4274;52.012;8.448;2023-11-21T08:35:17;8.00;99.90
8475;DHT22;4274;52.012;8.448;2023-11-21T08:37:43;7.90;99.90
8475;DHT22;4274;52.012;8.448;2023-11-21T08:40:09;8.00;99.90
8475;DHT22;4274;52.012;8.448;2023-11-21T08:42:37;7.90;99.90
8475;DHT22;4274;52.012;8.448;2023-11-21T08:45:04;7.90;99.90
8475;DHT22;4274;52.012;8.448;2023-11-21T08:47:29;8.00;99.90
8475;DHT22;4274;52.012;8.448;2023-11-21T08:49:55;8.00;99.90
8475;DHT22;4274;52.012;8.448;2023-11-21T08:52:21;8.00;99.90
8475;DHT22;4274;52.012;8.448;2023-11-21T08:54:49;8.00;99.90
8475;DHT22;4274;52.012;8.448;2023-11-21T08:57:24;8.00;99.90
8475;DHT22;4274;52.012;8.448;2023-11-21T08:59:50;8.10;99.90
8475;DHT22;4274;52.012;8.448;2023-11-21T09:02:21;8.10;99.90
8475;DHT22;4274;52.012;8.448;2023-11-21T09:04:48;8.10;99.90
8475;DHT22;4274;52.012;8.448;2023-11-21T09:07:14;8.10;99.90
8475;DHT22;4274;52.012;8.448;2023-11-21T09:09:40;8.10;99.90
8475;DHT22;4274;52.012;8.448;2023-11-21T09:12:06;8.10;99.90
8475;DHT22;4274;52.012;8.448;2023-11-21T09:14:31;8.10;99.90
8475;DHT22;4274;52.012;8.448;2023-11-21T09:16:57;8.10;99.90
8475;DHT22;4274;52.012;8.448;2023-11-21T09:19:23;8.10;99.90
8475;DHT22;4274;52.012;8.448;2023-11-21T09:21:48;8.10;99.90
8475;DHT22;4274;52.012;8.448;2023-11-21T09:24:14;8.00;99.90
8475;DHT22;4274;52.012;8.448;2023-11-21T09:26:40;8.10;99.90
8475;DHT22;4274;52.012;8.448;2023-11-21T09:29:05;8.00;99.90
8475;DHT22;4274;52.012;8.448;2023-11-21T09:31:31;8.10;99.90
8475;DHT22;4274;52.012;8.448;2023-11-21T09:33:58;8.10;99.90
8475;DHT22;4274;52.012;8.448;2023-11-21T09:36:24;8.10;99.90
8475;DHT22;4274;52.012;8.448;2023-11-21T09:38:53;8.00;99.90
8475;DHT22;4274;52.012;8.448;2023-11-21T09:41:43;8.00;99.90
8475;DHT22;4274;52.012;8.448;2023-11-21T09:44:13;8.10;99.90
8475;DHT22;4274;52.012;8.448;2023-11-21T09:46:41;8.10;99.90
8475;DHT22;4274;52.012;8.448;2023-11-21T09:49:09;8.00;99.90
8475;DHT22;4274;52.012;8.448;2023-11-21T09:51:43;8.00;99.90
8475;DHT22;4274;52.012;8.448;2023-11-21T09:54:10;8.00;99.90
8475;DHT22;4274;52.012;8.448;2023-11-21T09:56:37;8.00;99.90
8475;DHT22;4274;52.012;8.448;2023-11-21T09:59:03;8.00;99.90
8475;DHT22;4274;52.012;8.448;2023-11-21T10:01:33;8.00;99.90
8475;DHT22;4274;52.012;8.448;2023-11-21T10:04:00;8.10;99.90
8475;DHT22;4274;52.012;8.448;2023-11-21T10:06:26;8.10;99.90
8475;DHT22;4274;52.012;8.448;2023-11-21T10:08:53;8.10;99.90
8475;DHT22;4274;52.012;8.448;2023-11-21T10:11:19;8.10;99.90
8475;DHT22;4274;52.012;8.448;2023-11-21T10:13:48;8.10;99.90
8475;DHT22;4274;52.012;8.448;2023-11-21T10:16:19;8.10;99.90
8475;DHT22;4274;52.012;8.448;2023-11-21T10:18:48;8.10;99.90
8475;DHT22;4274;52.012;8.448;2023-11-21T10:21:15;8.10;99.90
8475;DHT22;4274;52.012;8.448;2023-11-21T10:23:40;8.10;99.90
8475;DHT22;4274;52.012;8.448;2023-11-21T10:26:07;8.10;99.90
8475;DHT22;4274;52.012;8.448;2023-11-21T10:28:38;8.10;99.90
8475;DHT22;4274;52.012;8.448;2023-11-21T10:31:07;8.10;99.90
8475;DHT22;4274;52.012;8.448;2023-11-21T10:33:33;8.10;99.90
8475;DHT22;4274;52.012;8.448;2023-11-21T10:35:58;8.00;99.90
8475;DHT22;4274;52.012;8.448;2023-11-21T10:38:26;8.00;99.90
8475;DHT22;4274;52.012;8.448;2023-11-21T10:40:53;7.90;99.90
8475;DHT22;4274;52.012;8.448;2023-11-21T10:43:21;7.90;99.90
8475;DHT22;4274;52.012;8.448;2023-11-21T10:45:49;7.80;99.90
8475;DHT22;4274;52.012;8.448;2023-11-21T10:48:16;7.70;99.90
8475;DHT22;4274;52.012;8.448;2023-11-21T10:50:43;7.80;99.90
8475;DHT22;4274;52.012;8.448;2023-11-21T10:53:10;7.70;99.90
8475;DHT22;4274;52.012;8.448;2023-11-21T10:55:37;7.60;99.90
8475;DHT22;4274;52.012;8.448;2023-11-21T10:58:03;7.60;99.90
8475;DHT22;4274;52.012;8.448;2023-11-21T11:00:31;7.60;99.90
8475;DHT22;4274;52.012;8.448;2023-11-21T11:02:57;7.60;99.90
8475;DHT22;4274;52.012;8.448;2023-11-21T11:05:26;7.50;99.90
8475;DHT22;4274;52.012;8.448;2023-11-21T11:08:08;7.50;99.90
8475;DHT22;4274;52.012;8.448;2023-11-21T11:10:35;7.40;99.90
8475;DHT22;4274;52.012;8.448;2023-11-21T11:13:02;7.40;99.90
8475;DHT22;4274;52.012;8.448;2023-11-21T11:15:28;7.40;99.90
8475;DHT22;4274;52.012;8.448;2023-11-21T11:17:54;7.40;99.90
8475;DHT22;4274;52.012;8.448;2023-11-21T11:20:24;7.30;99.90
8475;DHT22;4274;52.012;8.448;2023-11-21T11:28:38;7.30;99.90
8475;DHT22;4274;52.012;8.448;2023-11-21T11:31:35;7.30;99.90
8475;DHT22;4274;52.012;8.448;2023-11-21T11:34:28;7.20;99.90
8475;DHT22;4274;52.012;8.448;2023-11-21T11:37:08;7.20;99.90
8475;DHT22;4274;52.012;8.448;2023-11-21T11:39:41;7.20;99.90
8475;DHT22;4274;52.012;8.448;2023-11-21T11:42:17;7.20;99.90
8475;DHT22;4274;52.012;8.448;2023-11-21T11:47:31;7.20;99.90
8475;DHT22;4274;52.012;8.448;2023-11-21T11:50:07;7.20;99.90
8475;DHT22;4274;52.012;8.448;2023-11-21T11:52:34;7.20;99.90
8475;DHT22;4274;52.012;8.448;2023-11-21T11:55:01;7.20;99.90
8475;DHT22;4274;52.012;8.448;2023-11-21T11:57:30;7.10;99.90
8475;DHT22;4274;52.012;8.448;2023-11-21T12:02:49;7.00;99.90
8475;DHT22;4274;52.012;8.448;2023-11-21T12:05:16;7.00;99.90
8475;DHT22;4274;52.012;8.448;2023-11-21T12:07:45;7.00;99.90
8475;DHT22;4274;52.012;8.448;2023-11-21T12:10:18;6.90;99.90
8475;DHT22;4274;52.012;8.448;2023-11-21T12:12:45;6.90;99.90
8475;DHT22;4274;52.012;8.448;2023-11-21T12:15:12;6.90;99.90
8475;DHT22;4274;52.012;8.448;2023-11-21T12:17:39;6.80;99.90
8475;DHT22;4274;52.012;8.448;2023-11-21T12:20:05;6.70;99.90
8475;DHT22;4274;52.012;8.448;2023-11-21T12:22:58;6.70;99.90
8475;DHT22;4274;52.012;8.448;2023-11-21T12:25:30;6.70;99.90
8475;DHT22;4274;52.012;8.448;2023-11-21T12:28:00;6.70;99.90
8475;DHT22;4274;52.012;8.448;2023-11-21T12:30:27;6.70;99.90
8475;DHT22;4274;52.012;8.448;2023-11-21T12:32:57;6.70;99.90
8475;DHT22;4274;52.012;8.448;2023-11-21T12:35:30;6.70;99.90
8475;DHT22;4274;52.012;8.448;2023-11-21T12:38:00;6.70;99.90
8475;DHT22;4274;52.012;8.448;2023-11-21T12:40:27;6.70;99.90
8475;DHT22;4274;52.012;8.448;2023-11-21T12:42:55;6.70;99.90
8475;DHT22;4274;52.012;8.448;2023-11-21T12:45:25;6.60;99.90
8475;DHT22;4274;52.012;8.448;2023-11-21T12:47:52;6.60;99.90
8475;DHT22;4274;52.012;8.448;2023-11-21T12:50:24;6.70;99.90
8475;DHT22;4274;52.012;8.448;2023-11-21T12:52:57;6.90;99.90
8475;DHT22;4274;52.012;8.448;2023-11-21T12:55:23;7.00;99.90
8475;DHT22;4274;52.012;8.448;2023-11-21T12:57:50;7.20;99.90
8475;DHT22;4274;52.012;8.448;2023-11-21T13:00:33;7.20;99.90
8475;DHT22;4274;52.012;8.448;2023-11-21T13:03:04;7.20;99.90
8475;DHT22;4274;52.012;8.448;2023-11-21T13:05:32;7.20;99.90
8475;DHT22;4274;52.012;8.448;2023-11-21T13:08:00;7.20;99.90
8475;DHT22;4274;52.012;8.448;2023-11-21T13:10:29;7.10;99.90
8475;DHT22;4274;52.012;8.448;2023-11-21T13:12:57;7.10;99.90
8475;DHT22;4274;52.012;8.448;2023-11-21T13:15:24;7.10;99.90
8475;DHT22;4274;52.012;8.448;2023-11-21T13:17:50;7.00;99.90
8475;DHT22;4274;52.012;8.448;2023-11-21T13:20:16;7.00;99.90
8475;DHT22;4274;52.012;8.448;2023-11-21T13:22:56;7.10;99.90
8475;DHT22;4274;52.012;8.448;2023-11-21T13:25:27;7.10;99.90
8475;DHT22;4274;52.012;8.448;2023-11-21T13:27:57;7.00;99.90
8475;DHT22;4274;52.012;8.448;2023-11-21T13:30:24;6.90;99.90
8475;DHT22;4274;52.012;8.448;2023-11-21T13:32:53;6.90;99.90
8475;DHT22;4274;52.012;8.448;2023-11-21T13:35:23;6.90;99.90
8475;DHT22;4274;52.012;8.448;2023-11-21T13:37:56;6.80;99.90
8475;DHT22;4274;52.012;8.448;2023-11-21T13:40:26;6.80;99.90
8475;DHT22;4274;52.012;8.448;2023-11-21T13:42:52;6.80;99.90
8475;DHT22;4274;52.012;8.448;2023-11-21T13:45:23;6.80;99.90
8475;DHT22;4274;52.012;8.448;2023-11-21T13:47:53;6.80;99.90
8475;DHT22;4274;52.012;8.448;2023-11-21T13:50:26;6.80;99.90
8475;DHT22;4274;52.012;8.448;2023-11-21T13:52:59;6.80;99.90
8475;DHT22;4274;52.012;8.448;2023-11-21T13:55:30;6.80;99.90
8475;DHT22;4274;52.012;8.448;2023-11-21T13:57:55;6.80;99.90
8475;DHT22;4274;52.012;8.448;2023-11-21T14:00:21;6.80;99.90
8475;DHT22;4274;52.012;8.448;2023-11-21T14:03:16;6.80;99.90
8475;DHT22;4274;52.012;8.448;2023-11-21T14:05:45;6.80;99.90
8475;DHT22;4274;52.012;8.448;2023-11-21T14:08:13;6.80;99.90
8475;DHT22;4274;52.012;8.448;2023-11-21T14:10:42;6.80;99.90
8475;DHT22;4274;52.012;8.448;2023-11-21T14:13:18;6.80;99.90
8475;DHT22;4274;52.012;8.448;2023-11-21T14:15:45;6.70;99.90
8475;DHT22;4274;52.012;8.448;2023-11-21T14:18:12;6.70;99.90
8475;DHT22;4274;52.012;8.448;2023-11-21T14:20:42;6.70;99.90
8475;DHT22;4274;52.012;8.448;2023-11-21T14:23:08;6.70;99.90
8475;DHT22;4274;52.012;8.448;2023-11-21T14:25:36;6.70;99.90
8475;DHT22;4274;52.012;8.448;2023-11-21T14:28:03;6.70;99.90
8475;DHT22;4274;52.012;8.448;2023-11-21T14:30:29;6.70;99.90
8475;DHT22;4274;52.012;8.448;2023-11-21T14:33:00;6.70;99.90
8475;DHT22;4274;52.012;8.448;2023-11-21T14:35:26;6.70;99.90
8475;DHT22;4274;52.012;8.448;2023-11-21T14:37:52;6.60;99.90
8475;DHT22;4274;52.012;8.448;2023-11-21T14:40:18;6.60;99.90
8475;DHT22;4274;52.012;8.448;2023-11-21T14:42:50;6.60;99.90
8475;DHT22;4274;52.012;8.448;2023-11-21T14:45:19;6.60;99.90
8475;DHT22;4274;52.012;8.448;2023-11-21T14:47:46;6.50;99.90
8475;DHT22;4274;52.012;8.448;2023-11-21T14:50:21;6.50;99.90
8475;DHT22;4274;52.012;8.448;2023-11-21T14:53:05;6.50;99.90
8475;DHT22;4274;52.012;8.448;2023-11-21T14:55:35;6.40;99.90
8475;DHT22;4274;52.012;8.448;2023-11-21T14:58:16;6.50;99.90
8475;DHT22;4274;52.012;8.448;2023-11-21T15:01:00;6.50;99.90
8475;DHT22;4274;52.012;8.448;2023-11-21T15:03:27;6.40;99.90
8475;DHT22;4274;52.012;8.448;2023-11-21T15:05:56;6.50;99.90
8475;DHT22;4274;52.012;8.448;2023-11-21T15:08:22;6.40;99.90
8475;DHT22;4274;52.012;8.448;2023-11-21T15:10:53;6.40;99.90
8475;DHT22;4274;52.012;8.448;2023-11-21T15:13:20;6.40;99.90
8475;DHT22;4274;52.012;8.448;2023-11-21T15:15:47;6.30;99.90
8475;DHT22;4274;52.012;8.448;2023-11-21T15:18:13;6.30;99.90
8475;DHT22;4274;52.012;8.448;2023-11-21T15:20:42;6.30;99.90
8475;DHT22;4274;52.012;8.448;2023-11-21T15:23:09;6.30;99.90
8475;DHT22;4274;52.012;8.448;2023-11-21T15:25:35;6.30;99.90
8475;DHT22;4274;52.012;8.448;2023-11-21T15:28:02;6.30;99.90
8475;DHT22;4274;52.012;8.448;2023-11-21T15:30:28;6.20;99.90
8475;DHT22;4274;52.012;8.448;2023-11-21T15:32:57;6.30;99.90
8475;DHT22;4274;52.012;8.448;2023-11-21T15:35:23;6.30;99.90
8475;DHT22;4274;52.012;8.448;2023-11-21T15:37:49;6.20;99.90
8475;DHT22;4274;52.012;8.448;2023-11-21T15:40:14;6.20;99.90
8475;DHT22;4274;52.012;8.448;2023-11-21T15:42:42;6.20;99.90
8475;DHT22;4274;52.012;8.448;2023-11-21T15:45:08;6.20;99.90
8475;DHT22;4274;52.012;8.448;2023-11-21T15:47:34;6.20;99.90
8475;DHT22;4274;52.012;8.448;2023-11-21T15:50:00;6.20;99.90
8475;DHT22;4274;52.012;8.448;2023-11-21T15:52:26;6.20;99.90
8475;DHT22;4274;52.012;8.448;2023-11-21T15:54:54;6.20;99.90
8475;DHT22;4274;52.012;8.448;2023-11-21T15:57:19;6.20;99.90
8475;DHT22;4274;52.012;8.448;2023-11-21T15:59:47;6.20;99.90
8475;DHT22;4274;52.012;8.448;2023-11-21T16:02:13;6.10;99.90
8475;DHT22;4274;52.012;8.448;2023-11-21T16:04:41;6.10;99.90
8475;DHT22;4274;52.012;8.448;2023-11-21T16:07:08;6.10;99.90
8475;DHT22;4274;52.012;8.448;2023-11-21T16:09:33;6.10;99.90
8475;DHT22;4274;52.012;8.448;2023-11-21T16:12:01;6.10;99.90
8475;DHT22;4274;52.012;8.448;2023-11-21T16:14:35;6.10;99.90
8475;DHT22;4274;52.012;8.448;2023-11-21T16:17:02;6.10;99.90
8475;DHT22;4274;52.012;8.448;2023-11-21T16:19:28;6.00;99.90
8475;DHT22;4274;52.012;8.448;2023-11-21T16:21:54;6.00;99.90
8475;DHT22;4274;52.012;8.448;2023-11-21T16:24:20;6.00;99.90
8475;DHT22;4274;52.012;8.448;2023-11-21T16:26:46;6.00;99.90
8475;DHT22;4274;52.012;8.448;2023-11-21T16:29:13;6.00;99.90